createdAt,value
2022-09-26T00:01:10.216Z,99280.38
2022-09-26T00:03:37.831Z,99273.13
2022-09-26T00:06:05.803Z,99266.09
2022-09-26T00:08:33.393Z,99260.78
2022-09-26T00:11:01.462Z,99264.84
2022-09-26T00:13:29.136Z,99269.75
2022-09-26T00:15:56.692Z,99264.00
2022-09-26T00:18:24.321Z,99260.78
2022-09-26T00:20:52.190Z,99256.13
2022-09-26T00:23:19.823Z,99253.47
2022-09-26T00:25:47.686Z,99251.66
2022-09-26T00:28:15.319Z,99240.47
2022-09-26T00:30:45.047Z,99241.56
2022-09-26T00:33:12.871Z,99240.03
2022-09-26T00:35:40.498Z,99234.44
2022-09-26T00:38:08.089Z,99233.03
2022-09-26T00:40:36.393Z,99222.94
2022-09-26T00:43:04.393Z,99214.94
2022-09-26T00:45:32.266Z,99213.94
2022-09-26T00:48:01.225Z,99210.00
2022-09-26T00:50:28.840Z,99200.06
2022-09-26T00:52:56.423Z,99185.75
2022-09-26T00:55:24.825Z,99186.75
2022-09-26T00:57:53.465Z,99182.53
2022-09-26T01:00:21.052Z,99174.00
2022-09-26T01:02:48.664Z,99169.94
2022-09-26T01:05:16.319Z,99170.53
2022-09-26T01:07:44.234Z,99174.44
2022-09-26T01:10:12.232Z,99165.88
2022-09-26T01:12:39.828Z,99160.69
2022-09-26T01:15:09.076Z,99155.53
2022-09-26T01:17:37.113Z,99154.81
2022-09-26T01:20:05.059Z,99149.50
2022-09-26T01:22:33.004Z,99147.81
2022-09-26T01:25:00.535Z,99143.34
2022-09-26T01:27:28.148Z,99137.88
2022-09-26T01:29:55.717Z,99141.78
2022-09-26T01:32:41.017Z,99137.16
2022-09-26T01:35:08.795Z,99132.25
2022-09-26T01:37:36.441Z,99131.13
2022-09-26T01:40:04.058Z,99122.97
2022-09-26T01:42:31.608Z,99127.31
2022-09-26T01:44:59.558Z,99123.69
2022-09-26T01:47:27.728Z,99126.19
2022-09-26T01:49:55.290Z,99113.28
2022-09-26T01:52:22.821Z,99119.16
2022-09-26T01:54:50.433Z,99109.06
2022-09-26T01:57:18.415Z,99114.09
2022-09-26T01:59:47.754Z,99107.63
2022-09-26T02:02:15.442Z,99109.31
2022-09-26T02:04:43.014Z,99106.38
2022-09-26T02:07:11.000Z,99106.06
2022-09-26T02:09:38.952Z,99101.44
2022-09-26T02:12:06.721Z,99095.97
2022-09-26T02:14:34.284Z,99079.97
2022-09-26T02:17:01.933Z,99082.63
2022-09-26T02:19:29.564Z,99077.44
2022-09-26T02:21:58.984Z,99073.09
2022-09-26T02:24:26.770Z,99073.09
2022-09-26T02:26:54.337Z,99067.78
2022-09-26T02:29:21.954Z,99069.63
2022-09-26T02:31:49.654Z,99055.44
2022-09-26T02:34:17.601Z,99060.91
2022-09-26T02:36:46.458Z,99051.09
2022-09-26T02:39:14.171Z,99047.44
2022-09-26T02:41:41.827Z,99041.97
2022-09-26T02:44:09.362Z,99049.81
2022-09-26T02:46:38.842Z,99035.34
2022-09-26T02:49:06.447Z,99035.63
2022-09-26T02:51:34.052Z,99037.00
2022-09-26T02:54:01.646Z,99032.06
2022-09-26T02:56:30.135Z,99028.09
2022-09-26T02:58:59.846Z,99022.31
2022-09-26T03:01:27.798Z,99019.34
2022-09-26T03:03:55.941Z,99011.22
2022-09-26T03:06:23.931Z,99013.56
2022-09-26T03:08:51.545Z,99003.75
2022-09-26T03:11:19.590Z,98992.09
2022-09-26T03:13:47.342Z,98978.78
2022-09-26T03:16:15.004Z,98977.09
2022-09-26T03:18:42.583Z,98977.25
2022-09-26T03:21:10.133Z,98970.25
2022-09-26T03:23:38.140Z,98963.25
2022-09-26T03:26:05.859Z,98954.53
2022-09-26T03:28:37.679Z,98951.03
2022-09-26T03:31:05.723Z,98954.53
2022-09-26T03:33:33.301Z,98950.19
2022-09-26T03:36:01.388Z,98951.03
2022-09-26T03:38:29.382Z,98945.84
2022-09-26T03:40:57.060Z,98942.34
2022-09-26T03:43:24.821Z,98936.31
2022-09-26T03:45:52.486Z,98940.84
2022-09-26T03:48:20.490Z,98933.53
2022-09-26T03:50:49.570Z,98936.03
2022-09-26T03:53:17.147Z,98938.53
2022-09-26T03:55:44.976Z,98923.25
2022-09-26T03:58:12.553Z,98926.88
2022-09-26T04:00:40.327Z,98927.59
2022-09-26T04:03:08.111Z,98916.06
2022-09-26T04:05:36.159Z,98918.06
2022-09-26T04:08:05.914Z,98897.03
2022-09-26T04:10:33.479Z,98898.19
2022-09-26T04:13:01.579Z,98900.16
2022-09-26T04:15:30.195Z,98895.13
2022-09-26T04:17:57.985Z,98889.13
2022-09-26T04:20:25.522Z,98890.13
2022-09-26T04:22:53.140Z,98878.75
2022-09-26T04:25:21.077Z,98879.75
2022-09-26T04:27:48.829Z,98864.88
2022-09-26T04:30:16.443Z,98861.56
2022-09-26T04:32:43.977Z,98863.38
2022-09-26T04:35:11.561Z,98855.69
2022-09-26T04:37:39.569Z,98852.03
2022-09-26T04:40:07.798Z,98850.34
2022-09-26T04:42:37.053Z,98844.34
2022-09-26T04:45:04.819Z,98847.03
2022-09-26T04:47:32.642Z,98833.84
2022-09-26T04:50:00.239Z,98837.50
2022-09-26T04:52:27.993Z,98833.03
2022-09-26T04:54:56.038Z,98830.50
2022-09-26T04:57:24.033Z,98829.50
2022-09-26T04:59:52.337Z,98827.84
2022-09-26T05:02:20.652Z,98832.31
2022-09-26T05:04:48.755Z,98823.50
2022-09-26T05:07:18.471Z,98818.84
2022-09-26T05:09:46.318Z,98819.69
2022-09-26T05:12:14.006Z,98819.53
2022-09-26T05:14:42.526Z,98816.72
2022-09-26T05:17:11.867Z,98812.06
2022-09-26T05:19:39.476Z,98802.94
2022-09-26T05:22:07.114Z,98806.59
2022-09-26T05:24:52.675Z,98787.78
2022-09-26T05:27:21.403Z,98798.44
2022-09-26T05:29:48.990Z,98787.78
2022-09-26T05:32:20.851Z,98789.47
2022-09-26T05:34:49.062Z,98800.94
2022-09-26T05:37:17.304Z,98799.13
2022-09-26T05:40:02.226Z,98787.59
2022-09-26T05:42:30.131Z,98778.78
2022-09-26T05:44:57.697Z,98776.81
2022-09-26T05:47:26.812Z,98779.47
2022-09-26T05:49:54.784Z,98782.97
2022-09-26T05:52:23.141Z,98782.97
2022-09-26T05:54:51.216Z,98787.47
2022-09-26T05:57:19.158Z,98775.13
2022-09-26T05:59:47.173Z,98769.81
2022-09-26T06:02:18.616Z,98774.28
2022-09-26T06:04:48.418Z,98768.94
2022-09-26T06:07:16.235Z,98775.94
2022-09-26T06:09:44.868Z,98767.81
2022-09-26T06:12:12.822Z,98766.81
2022-09-26T06:14:47.035Z,98767.53
2022-09-26T06:17:14.651Z,98767.34
2022-09-26T06:19:42.228Z,98754.88
2022-09-26T06:22:09.836Z,98747.53
2022-09-26T06:24:37.829Z,98743.59
2022-09-26T06:27:05.493Z,98744.94
2022-09-26T06:29:33.188Z,98736.63
2022-09-26T06:32:01.157Z,98736.97
2022-09-26T06:34:28.811Z,98730.34
2022-09-26T06:36:56.858Z,98725.56
2022-09-26T06:39:30.867Z,98711.78
2022-09-26T06:41:59.903Z,98717.28
2022-09-26T06:44:28.383Z,98726.31
2022-09-26T06:46:56.087Z,98702.50
2022-09-26T06:49:24.085Z,98702.56
2022-09-26T06:51:51.817Z,98693.91
2022-09-26T06:54:19.454Z,98693.09
2022-09-26T06:56:47.494Z,98686.63
2022-09-26T06:59:17.027Z,98683.50
2022-09-26T07:01:46.797Z,98680.00
2022-09-26T07:04:15.998Z,98686.72
2022-09-26T07:06:43.760Z,98676.03
2022-09-26T07:09:12.608Z,98667.22
2022-09-26T07:12:10.037Z,98676.03
2022-09-26T07:14:31.601Z,98659.50
2022-09-26T07:16:59.452Z,98654.66
2022-09-26T07:19:27.194Z,98660.03
2022-09-26T07:21:55.239Z,98655.03
2022-09-26T07:24:23.008Z,98658.84
2022-09-26T07:26:51.135Z,98650.31
2022-09-26T07:29:18.821Z,98655.16
2022-09-26T07:31:46.923Z,98632.59
2022-09-26T07:34:18.273Z,98632.94
2022-09-26T07:36:47.763Z,98621.56
2022-09-26T07:39:16.087Z,98629.06
2022-09-26T07:41:43.867Z,98627.22
2022-09-26T07:47:17.295Z,98623.56
2022-09-26T07:50:02.670Z,98629.56
2022-09-26T07:52:30.865Z,98624.22
2022-09-26T07:54:58.553Z,98618.50
2022-09-26T07:57:26.314Z,98604.63
2022-09-26T07:59:54.402Z,98615.81
2022-09-26T08:02:22.481Z,98609.28
2022-09-26T08:04:50.683Z,98606.59
2022-09-26T08:07:18.322Z,98623.50
2022-09-26T08:09:46.025Z,98612.47
2022-09-26T08:12:14.702Z,98610.31
2022-09-26T08:14:42.809Z,98615.66
2022-09-26T08:17:14.207Z,98611.50
2022-09-26T08:19:42.459Z,98610.00
2022-09-26T08:22:10.251Z,98605.50
2022-09-26T08:24:38.066Z,98600.97
2022-09-26T08:27:06.264Z,98601.16
2022-09-26T08:29:35.194Z,98604.16
2022-09-26T08:32:03.592Z,98599.81
2022-09-26T08:34:32.206Z,98604.34
2022-09-26T08:36:59.976Z,98607.19
2022-09-26T08:39:32.518Z,98597.50
2022-09-26T08:42:01.082Z,98617.22
2022-09-26T08:44:30.278Z,98602.03
2022-09-26T08:47:01.181Z,98600.22
2022-09-26T08:49:29.358Z,98592.56
2022-09-26T08:51:56.994Z,98598.22
2022-09-26T08:54:24.779Z,98587.22
2022-09-26T08:56:52.566Z,98591.22
2022-09-26T08:59:20.269Z,98588.53
2022-09-26T09:01:48.148Z,98583.19
2022-09-26T09:04:16.272Z,98582.22
2022-09-26T09:06:44.929Z,98584.88
2022-09-26T09:09:13.558Z,98582.56
2022-09-26T09:11:41.274Z,98590.22
2022-09-26T09:14:09.375Z,98582.22
2022-09-26T09:16:37.212Z,98595.75
2022-09-26T09:19:05.070Z,98587.91
2022-09-26T09:21:34.259Z,98595.53
2022-09-26T09:24:03.790Z,98586.00
2022-09-26T09:29:19.846Z,98592.16
2022-09-26T09:31:48.107Z,98587.97
2022-09-26T09:34:15.995Z,98588.13
2022-09-26T09:36:43.894Z,98592.09
2022-09-26T09:39:11.610Z,98583.59
2022-09-26T09:41:39.347Z,98584.25
2022-09-26T09:44:07.093Z,98581.75
2022-09-26T09:46:34.793Z,98580.25
2022-09-26T09:49:02.919Z,98576.28
2022-09-26T09:51:34.257Z,98577.63
2022-09-26T09:54:04.651Z,98557.94
2022-09-26T09:56:32.283Z,98559.31
2022-09-26T09:59:03.954Z,98548.00
2022-09-26T10:01:31.757Z,98556.00
2022-09-26T10:03:59.477Z,98543.84
2022-09-26T10:06:45.179Z,98530.50
2022-09-26T10:09:35.615Z,98539.50
2022-09-26T10:12:04.508Z,98530.50
2022-09-26T10:14:32.303Z,98527.16
2022-09-26T10:17:00.273Z,98531.69
2022-09-26T10:19:30.169Z,98513.81
2022-09-26T10:21:58.760Z,98517.84
2022-09-26T10:24:26.939Z,98514.19
2022-09-26T10:26:54.676Z,98517.00
2022-09-26T10:29:22.522Z,98516.50
2022-09-26T10:31:50.582Z,98505.47
2022-09-26T10:34:19.279Z,98502.81
2022-09-26T10:36:47.296Z,98498.63
2022-09-26T10:39:32.274Z,98475.13
2022-09-26T10:42:01.535Z,98472.47
2022-09-26T10:44:29.346Z,98481.13
2022-09-26T10:46:58.224Z,98471.31
2022-09-26T10:49:26.021Z,98459.78
2022-09-26T10:51:54.748Z,98454.13
2022-09-26T10:54:23.799Z,98440.97
2022-09-26T10:56:54.446Z,98456.47
2022-09-26T10:59:22.402Z,98450.81
2022-09-26T11:01:50.652Z,98436.13
2022-09-26T11:04:39.853Z,98432.94
2022-09-26T11:07:06.525Z,98439.75
2022-09-26T11:09:34.531Z,98415.41
2022-09-26T11:12:04.228Z,98425.56
2022-09-26T11:14:34.529Z,98405.31
2022-09-26T11:17:03.953Z,98395.94
2022-09-26T11:19:31.848Z,98391.84
2022-09-26T11:22:03.201Z,98400.16
2022-09-26T11:24:37.474Z,98384.09
2022-09-26T11:27:06.515Z,98366.00
2022-09-26T11:29:34.691Z,98368.44
2022-09-26T11:32:05.283Z,98362.41
2022-09-26T11:34:33.313Z,98353.84
2022-09-26T11:37:02.861Z,98361.69
2022-09-26T11:39:31.699Z,98366.56
2022-09-26T11:41:59.466Z,98360.56
2022-09-26T11:44:27.262Z,98369.56
2022-09-26T11:46:55.137Z,98366.31
2022-09-26T11:49:23.086Z,98363.69
2022-09-26T11:51:51.772Z,98367.75
2022-09-26T11:54:19.570Z,98349.19
2022-09-26T11:56:48.783Z,98349.69
2022-09-26T11:59:16.796Z,98345.63
2022-09-26T12:01:44.608Z,98330.75
2022-09-26T12:04:14.244Z,98333.53
2022-09-26T12:06:42.212Z,98319.25
2022-09-26T12:09:09.987Z,98322.81
2022-09-26T12:11:38.249Z,98305.81
2022-09-26T12:14:06.141Z,98323.19
2022-09-26T12:16:36.613Z,98295.81
2022-09-26T12:19:05.961Z,98309.47
2022-09-26T12:21:34.334Z,98298.94
2022-09-26T12:24:02.181Z,98270.19
2022-09-26T12:26:29.955Z,98279.41
2022-09-26T12:28:58.063Z,98288.16
2022-09-26T12:31:25.996Z,98265.16
2022-09-26T12:33:54.156Z,98267.47
2022-09-26T12:36:22.194Z,98264.78
2022-09-26T12:38:53.166Z,98265.34
2022-09-26T12:41:25.869Z,98257.69
2022-09-26T12:43:53.603Z,98259.72
2022-09-26T12:46:22.042Z,98253.91
2022-09-26T12:48:50.504Z,98243.19
2022-09-26T12:51:22.588Z,98246.72
2022-09-26T12:53:50.654Z,98242.63
2022-09-26T12:56:18.533Z,98236.69
2022-09-26T12:58:46.880Z,98239.19
2022-09-26T13:01:15.197Z,98233.47
2022-09-26T13:03:42.966Z,98229.09
2022-09-26T13:06:11.278Z,98230.69
2022-09-26T13:08:39.132Z,98233.59
2022-09-26T13:11:07.351Z,98218.59
2022-09-26T13:13:35.060Z,98213.69
2022-09-26T13:16:04.318Z,98223.97
2022-09-26T13:18:35.326Z,98222.22
2022-09-26T13:21:03.565Z,98212.69
2022-09-26T13:23:32.481Z,98227.50
2022-09-26T13:26:00.963Z,98211.38
2022-09-26T13:28:28.955Z,98227.25
2022-09-26T13:30:58.543Z,98229.75
2022-09-26T13:33:26.380Z,98223.91
2022-09-26T13:35:54.524Z,98225.81
2022-09-26T13:38:22.390Z,98226.13
2022-09-26T13:40:51.627Z,98222.22
2022-09-26T13:43:24.023Z,98218.63
2022-09-26T13:45:52.462Z,98221.09
2022-09-26T13:48:22.535Z,98222.66
2022-09-26T13:50:50.439Z,98223.09
2022-09-26T13:53:18.216Z,98228.66
2022-09-26T13:55:47.359Z,98229.06
2022-09-26T13:58:15.163Z,98231.28
2022-09-26T14:00:49.501Z,98217.97
2022-09-26T14:03:17.506Z,98208.28
2022-09-26T14:05:46.738Z,98198.63
2022-09-26T14:08:32.629Z,98223.34
2022-09-26T14:11:00.606Z,98203.72
2022-09-26T14:13:28.410Z,98195.03
2022-09-26T14:15:57.329Z,98196.69
2022-09-26T14:18:25.424Z,98190.84
2022-09-26T14:20:53.707Z,98190.13
2022-09-26T14:23:21.671Z,98186.72
2022-09-26T14:25:49.750Z,98198.00
2022-09-26T14:28:17.502Z,98176.16
2022-09-26T14:30:46.416Z,98167.00
2022-09-26T14:33:15.809Z,98172.41
2022-09-26T14:35:43.826Z,98166.66
2022-09-26T14:38:11.659Z,98166.03
2022-09-26T14:40:39.477Z,98166.63
2022-09-26T14:43:07.841Z,98179.06
2022-09-26T14:45:36.106Z,98150.31
2022-09-26T14:48:04.906Z,98152.78
2022-09-26T14:50:34.655Z,98151.97
2022-09-26T14:53:02.483Z,98140.44
2022-09-26T14:55:30.258Z,98143.09
2022-09-26T14:57:58.643Z,98145.94
2022-09-26T15:00:26.947Z,98133.97
2022-09-26T15:02:58.856Z,98130.66
2022-09-26T15:05:29.053Z,98123.00
2022-09-26T15:07:57.211Z,98122.91
2022-09-26T15:10:25.639Z,98116.63
2022-09-26T15:12:54.450Z,98118.53
2022-09-26T15:15:22.624Z,98111.91
2022-09-26T15:17:50.806Z,98108.44
2022-09-26T15:20:18.687Z,98104.09
2022-09-26T15:22:46.937Z,98101.75
2022-09-26T15:25:14.922Z,98097.34
2022-09-26T15:27:46.042Z,98106.13
2022-09-26T15:30:14.897Z,98099.38
2022-09-26T15:32:42.738Z,98099.63
2022-09-26T15:35:11.103Z,98095.16
2022-09-26T15:37:39.220Z,98093.53
2022-09-26T15:40:07.123Z,98089.75
2022-09-26T15:42:52.374Z,98091.25
2022-09-26T15:45:26.142Z,98073.31
2022-09-26T15:47:54.210Z,98075.13
2022-09-26T15:50:22.910Z,98064.84
2022-09-26T15:52:50.700Z,98061.47
2022-09-26T15:55:18.564Z,98060.69
2022-09-26T15:57:46.757Z,98053.84
2022-09-26T16:00:15.031Z,98053.84
2022-09-26T16:02:42.964Z,98049.53
2022-09-26T16:05:13.020Z,98044.56
2022-09-26T16:07:41.594Z,98042.88
2022-09-26T16:10:09.856Z,98042.22
2022-09-26T16:12:37.985Z,98045.91
2022-09-26T16:15:06.140Z,98039.56
2022-09-26T16:17:36.115Z,98032.19
2022-09-26T16:20:04.015Z,98050.53
2022-09-26T16:22:37.146Z,98037.69
2022-09-26T16:25:04.980Z,98037.63
2022-09-26T16:27:32.922Z,98046.06
2022-09-26T16:30:05.041Z,98022.66
2022-09-26T16:32:33.364Z,98027.91
2022-09-26T16:35:01.964Z,98020.88
2022-09-26T16:37:30.348Z,98022.19
2022-09-26T16:39:59.549Z,98025.50
2022-09-26T16:42:27.504Z,98029.00
2022-09-26T16:44:55.905Z,98016.31
2022-09-26T16:47:24.821Z,98017.31
2022-09-26T16:49:53.062Z,98018.78
2022-09-26T16:52:21.047Z,98020.47
2022-09-26T16:54:49.267Z,98014.09
2022-09-26T16:57:17.210Z,98014.09
2022-09-26T16:59:45.635Z,98008.78
2022-09-26T17:02:12.426Z,98028.09
2022-09-26T17:04:40.614Z,98002.25
2022-09-26T17:07:09.824Z,97995.91
2022-09-26T17:09:37.821Z,97993.22
2022-09-26T17:12:06.023Z,97997.91
2022-09-26T17:14:39.446Z,97994.59
2022-09-26T17:17:09.270Z,97993.47
2022-09-26T17:19:37.228Z,97986.19
2022-09-26T17:22:05.624Z,97987.91
2022-09-26T17:24:33.567Z,97987.31
2022-09-26T17:27:01.512Z,97985.06
2022-09-26T17:29:30.415Z,97980.16
2022-09-26T17:31:58.239Z,97985.53
2022-09-26T17:34:26.113Z,97977.56
2022-09-26T17:36:54.544Z,97964.94
2022-09-26T17:39:25.935Z,97973.28
2022-09-26T17:41:54.225Z,97958.00
2022-09-26T17:44:22.421Z,97966.31
2022-09-26T17:46:50.323Z,97964.03
2022-09-26T17:49:19.056Z,97968.72
2022-09-26T17:51:46.917Z,97968.06
2022-09-26T17:54:15.309Z,97954.25
2022-09-26T17:56:43.308Z,97957.09
2022-09-26T17:59:11.277Z,97949.44
2022-09-26T18:01:39.464Z,97952.28
2022-09-26T18:04:12.774Z,97944.47
2022-09-26T18:06:43.116Z,97943.81
2022-09-26T18:09:12.273Z,97944.81
2022-09-26T18:11:42.353Z,97935.34
2022-09-26T18:14:14.617Z,97940.84
2022-09-26T18:16:42.825Z,97929.69
2022-09-26T18:19:10.864Z,97934.22
2022-09-26T18:21:40.263Z,97926.22
2022-09-26T18:24:13.991Z,97922.88
2022-09-26T18:26:47.633Z,97909.75
2022-09-26T18:29:16.355Z,97908.09
2022-09-26T18:31:44.640Z,97917.91
2022-09-26T18:34:12.870Z,97918.91
2022-09-26T18:36:40.784Z,97918.28
2022-09-26T18:39:10.583Z,97907.78
2022-09-26T18:41:38.493Z,97910.44
2022-09-26T18:44:06.673Z,97911.25
2022-09-26T18:46:36.798Z,97899.78
2022-09-26T18:49:12.138Z,97905.94
2022-09-26T18:51:40.147Z,97899.78
2022-09-26T18:54:11.415Z,97901.63
2022-09-26T18:56:56.936Z,97896.28
2022-09-26T18:59:28.931Z,97892.63
2022-09-26T19:02:00.430Z,97892.81
2022-09-26T19:04:30.674Z,97904.28
2022-09-26T19:06:59.692Z,97890.97
2022-09-26T19:09:27.878Z,97894.63
2022-09-26T19:11:55.702Z,97877.66
2022-09-26T19:14:23.428Z,97891.97
2022-09-26T19:16:51.254Z,97897.31
2022-09-26T19:19:19.502Z,97879.31
2022-09-26T19:21:47.712Z,97880.31
2022-09-26T19:24:20.861Z,97878.50
2022-09-26T19:26:49.259Z,97889.16
2022-09-26T19:29:17.003Z,97880.31
2022-09-26T19:31:45.338Z,97886.66
2022-09-26T19:34:13.512Z,97878.50
2022-09-26T19:36:41.376Z,97881.16
2022-09-26T19:39:09.233Z,97872.31
2022-09-26T19:41:37.208Z,97876.00
2022-09-26T19:44:05.806Z,97874.34
2022-09-26T19:46:35.335Z,97873.34
2022-09-26T19:49:03.537Z,97870.66
2022-09-26T19:51:31.492Z,97863.69
2022-09-26T19:54:06.451Z,97865.34
2022-09-26T19:56:35.356Z,97872.31
2022-09-26T19:59:03.332Z,97867.84
2022-09-26T20:01:31.311Z,97864.34
2022-09-26T20:03:59.323Z,97861.66
2022-09-26T20:06:27.092Z,97859.22
2022-09-26T20:09:01.101Z,97870.66
2022-09-26T20:11:29.469Z,97863.69
2022-09-26T20:14:14.730Z,97857.34
2022-09-26T20:16:42.737Z,97861.66
2022-09-26T20:19:10.958Z,97866.66
2022-09-26T20:21:38.569Z,97868.31
2022-09-26T20:24:06.200Z,97867.16
2022-09-26T20:26:34.069Z,97856.13
2022-09-26T20:29:01.704Z,97852.63
2022-09-26T20:31:30.283Z,97853.28
2022-09-26T20:34:00.180Z,97847.59
2022-09-26T20:36:28.069Z,97843.94
2022-09-26T20:38:55.918Z,97847.59
2022-09-26T20:41:23.606Z,97834.94
2022-09-26T20:43:51.541Z,97841.94
2022-09-26T20:46:19.274Z,97843.94
2022-09-26T20:48:47.302Z,97837.78
2022-09-26T20:51:14.951Z,97834.28
2022-09-26T20:53:42.870Z,97827.31
2022-09-26T20:56:11.063Z,97825.81
2022-09-26T20:58:38.695Z,97835.81
2022-09-26T21:01:06.503Z,97822.69
2022-09-26T21:03:34.190Z,97826.19
2022-09-26T21:06:01.960Z,97825.34
2022-09-26T21:08:30.905Z,97822.69
2022-09-26T21:10:59.794Z,97827.00
2022-09-26T21:13:27.565Z,97819.84
2022-09-26T21:15:55.398Z,97828.66
2022-09-26T21:18:23.157Z,97826.66
2022-09-26T21:20:51.935Z,97816.66
2022-09-26T21:23:19.855Z,97816.47
2022-09-26T21:25:47.630Z,97820.63
2022-09-26T21:28:15.288Z,97817.75
2022-09-26T21:30:43.521Z,97814.56
2022-09-26T21:33:11.727Z,97801.06
2022-09-26T21:35:39.605Z,97800.44
2022-09-26T21:38:07.414Z,97798.94
2022-09-26T21:40:35.186Z,97796.66
2022-09-26T21:43:03.003Z,97802.97
2022-09-26T21:45:30.827Z,97795.81
2022-09-26T21:47:58.711Z,97794.16
2022-09-26T21:50:26.519Z,97797.84
2022-09-26T21:52:54.597Z,97790.19
2022-09-26T21:55:22.319Z,97784.03
2022-09-26T21:57:50.622Z,97783.38
2022-09-26T22:00:18.586Z,97772.72
2022-09-26T22:02:46.442Z,97782.19
2022-09-26T22:05:16.793Z,97781.19
2022-09-26T22:07:44.643Z,97780.00
2022-09-26T22:10:12.949Z,97775.97
2022-09-26T22:12:40.617Z,97780.78
2022-09-26T22:15:08.745Z,97775.06
2022-09-26T22:17:36.415Z,97776.56
2022-09-26T22:20:04.105Z,97776.22
2022-09-26T22:22:32.234Z,97765.56
2022-09-26T22:25:03.950Z,97762.91
2022-09-26T22:27:31.660Z,97754.44
2022-09-26T22:29:59.389Z,97752.09
2022-09-26T22:32:27.092Z,97754.50
2022-09-26T22:34:55.430Z,97747.69
2022-09-26T22:37:23.466Z,97750.53
2022-09-26T22:39:51.122Z,97746.84
2022-09-26T22:42:18.747Z,97754.31
2022-09-26T22:44:46.406Z,97741.81
2022-09-26T22:47:14.631Z,97737.97
2022-09-26T22:49:42.415Z,97738.63
2022-09-26T22:52:10.070Z,97735.78
2022-09-26T22:54:37.714Z,97732.91
2022-09-26T22:57:05.349Z,97729.78
2022-09-26T22:59:34.378Z,97728.50
2022-09-26T23:02:02.049Z,97731.72
2022-09-26T23:04:47.132Z,97728.38
2022-09-26T23:07:14.836Z,97730.41
2022-09-26T23:09:42.786Z,97727.09
2022-09-26T23:12:10.464Z,97726.25
2022-09-26T23:14:38.093Z,97733.44
2022-09-26T23:17:05.888Z,97723.78
2022-09-26T23:19:33.882Z,97719.28
2022-09-26T23:22:01.823Z,97715.59
2022-09-26T23:24:29.441Z,97709.63
2022-09-26T23:26:57.106Z,97722.09
2022-09-26T23:29:24.737Z,97713.31
2022-09-26T23:31:52.315Z,97709.81
2022-09-26T23:34:20.296Z,97710.47
2022-09-26T23:36:47.924Z,97715.81
2022-09-26T23:39:15.654Z,97725.44
2022-09-26T23:41:43.347Z,97720.28
2022-09-26T23:44:11.072Z,97718.47
2022-09-26T23:46:39.615Z,97728.28
2022-09-26T23:49:07.298Z,97715.81
2022-09-26T23:51:34.877Z,97721.13
2022-09-26T23:54:02.839Z,97720.94
2022-09-26T23:56:30.457Z,97722.25
2022-09-26T23:58:59.049Z,97720.38
